PASD Airport Information

Runway Information
Runway 13 Length 4000 ft width 150 ft
Elevation 21 ft Threshold 0 ft Heading 149
Runway 31 Length 4000 ft Width 150 ft
Elevation 21 ft Threshold 0 ft Heading 329
Airport Frequencies
Type AWOS Name AWOS 3 Frequency 134.85 MHZ
Type CLD Name CLNC DEL Frequency 122.3 MHZ
Type CNTR Name ANCHORAGE Frequency 125.35 MHZ
Type CTAF Name CTAF Frequency 122.3 MHZ
Type FSS Name COLD BAY R Frequency 122.3 MHZ
Type UNIC Name UNICOM Frequency 122.8 MHZ
Airport Navaids
Type NDB-DME Name Borland Frequency 390 KHZ
Airport Weather Information & NOTAM
ADDS - METARS form results

(0454 UTC 17 November 2018)
Data provider http://aviationweather.gov/metar/data/
 
METAR text: PASD 170416Z AUTO 00000KT 10SM CLR 07/04 A2950 RMK AO2 PNO $
Conditions at: PASD (SAND POINT , AK, US) observed 0416 UTC 17 November 2018
Temperature: 7.0°C (45°F)
Dewpoint: 4.0°C (39°F) [RH = 81%]
Pressure (altimeter): 29.50 inches Hg (999.1 mb)
Winds: calm
Visibility: 10 or more miles (16+ km)
Ceiling: at least 12,000 feet AGL
Clouds: sky clear below 12,000 feet AGL
Weather:
SOME DATA ABOVE MAY BE INACCURATE!!!
"$" is an indication the sensor requires maintenance

METAR text: PASD 170356Z 00000KT 10SM CLR 07/05 A2950 RMK AO2 SLP993 LAST T00720050 PNO $
Conditions at: PASD (SAND POINT , AK, US) observed 0356 UTC 17 November 2018
Temperature: 7.2°C (45°F)
Dewpoint: 5.0°C (41°F) [RH = 86%]
Pressure (altimeter): 29.50 inches Hg (999.1 mb)
[Sea-level pressure:  999.3 mb]
Winds: calm
Visibility: 10 or more miles (16+ km)
Ceiling: at least 12,000 feet AGL
Clouds: sky clear below 12,000 feet AGL
Weather:
SOME DATA ABOVE MAY BE INACCURATE!!!
"$" is an indication the sensor requires maintenance

Forecast for: PASD (SAND POINT , AK, US)
Text: PASD 162334Z 1700/1724 VRB05KT P6SM VCSH BKN035 BKN050
Forecast period: 0000 to 0700 UTC 17 November 2018
Forecast type: FROM: standard forecast or significant change
Winds: variable direction winds at 6 MPH (5 knots; 2.6 m/s)
Visibility: 6 or more miles 10+ km)
Ceiling: 3500 feet AGL
Clouds: broken clouds at 3500 feet AGL
broken clouds at 5000 feet AGL
Weather: VCSH  (showers in vicinity)
Text: FM170700 16006KT 6SM -RA BKN015
Forecast period: 0700 to 1100 UTC 17 November 2018
Forecast type: FROM: standard forecast or significant change
Winds: from the SSE (160 degrees) at 7 MPH (6 knots; 3.1 m/s)
Visibility: 6 miles (10 km)
Ceiling: 1500 feet AGL
Clouds: broken clouds at 1500 feet AGL
Weather: -RA  (light rain)
Text: FM171100 VRB06KT 5SM -RA BR OVC007 AMD LTD TO CLD VIS AND WIND
Forecast period: 1100 UTC 17 November 2018 to 0000 UTC 18 November 2018
Forecast type: FROM: standard forecast or significant change
Winds: variable direction winds at 7 MPH (6 knots; 3.1 m/s)
Visibility: 5 miles (8 km)
Ceiling: 700 feet AGL
Clouds: overcast cloud deck at 700 feet AGL
Weather: -RA BR  (light rain, mist)